Time;durP1;ratioP1;P1;durP2;ratioP2;P2;SDS_P1;SDS_P2;PMS_P1;PMS_P2;Temp;Humidity;BMP_temperature;BMP_pressure;BME280_temperature;BME280_humidity;BME280_pressure;Samples;Min_cycle;Max_cycle;Signal;HPM_P1;HPM_P2
2022/12/12 00:00:52;;;;;;;47.90;20.38;;;;;;;;;;5053542;28;20049;-73
2022/12/12 00:03:20;;;;;;;49.40;21.27;;;;;;;;;;5055228;28;20106;-73
2022/12/12 00:05:48;;;;;;;52.67;22.02;;;;;;;;;;5075379;28;20052;-73
2022/12/12 00:08:16;;;;;;;57.47;23.67;;;;;;;;;;5056868;28;20040;-73
2022/12/12 00:10:43;;;;;;;52.80;21.88;;;;;;;;;;5074359;28;20727;-73
2022/12/12 00:13:10;;;;;;;60.00;24.98;;;;;;;;;;5045398;28;20152;-73
2022/12/12 00:15:38;;;;;;;54.00;23.40;;;;;;;;;;5072643;28;20143;-74
2022/12/12 00:18:05;;;;;;;54.17;23.58;;;;;;;;;;5046128;28;20045;-73
2022/12/12 00:20:32;;;;;;;53.05;21.33;;;;;;;;;;5070926;28;20044;-73
2022/12/12 00:23:01;;;;;;;54.50;22.17;;;;;;;;;;5047324;28;20075;-73
2022/12/12 00:25:28;;;;;;;58.00;22.50;;;;;;;;;;5047371;28;20078;-73
2022/12/12 00:27:55;;;;;;;51.10;21.42;;;;;;;;;;5054361;28;20055;-74
2022/12/12 00:30:23;;;;;;;53.13;22.00;;;;;;;;;;5042181;28;20053;-73
2022/12/12 00:32:50;;;;;;;47.40;20.65;;;;;;;;;;5049184;28;20052;-73
2022/12/12 00:35:17;;;;;;;60.17;23.42;;;;;;;;;;5049133;28;20058;-73
2022/12/12 00:37:44;;;;;;;51.13;22.13;;;;;;;;;;5064690;28;20463;-73
2022/12/12 00:40:13;;;;;;;43.65;19.83;;;;;;;;;;5040602;28;20044;-73
2022/12/12 00:42:40;;;;;;;53.58;23.25;;;;;;;;;;5038091;28;20060;-73
2022/12/12 00:45:08;;;;;;;49.90;21.33;;;;;;;;;;5051725;28;20107;-73
2022/12/12 00:47:36;;;;;;;61.15;24.27;;;;;;;;;;5069515;28;20055;-73
2022/12/12 00:50:03;;;;;;;61.15;23.77;;;;;;;;;;5049720;28;20064;-73
2022/12/12 00:52:30;;;;;;;49.55;21.85;;;;;;;;;;5051820;28;20052;-73
2022/12/12 00:54:58;;;;;;;53.55;21.50;;;;;;;;;;5045995;28;20052;-73
2022/12/12 00:57:27;;;;;;;59.72;23.77;;;;;;;;;;5049204;28;20048;-73
2022/12/12 00:59:54;;;;;;;56.35;22.48;;;;;;;;;;5068253;28;20053;-73
2022/12/12 01:02:21;;;;;;;54.00;22.45;;;;;;;;;;5049698;28;20071;-74
2022/12/12 01:04:48;;;;;;;57.50;23.63;;;;;;;;;;5043739;28;20722;-74
2022/12/12 01:07:16;;;;;;;60.67;23.27;;;;;;;;;;5051672;28;20054;-74
2022/12/12 01:09:43;;;;;;;57.45;22.65;;;;;;;;;;5070416;28;20071;-73
2022/12/12 01:12:10;;;;;;;55.03;22.63;;;;;;;;;;5050081;28;20059;-74
2022/12/12 01:14:39;;;;;;;62.58;22.95;;;;;;;;;;5070057;28;20066;-74
2022/12/12 01:17:06;;;;;;;51.42;22.67;;;;;;;;;;5069012;28;20048;-74
2022/12/12 01:19:33;;;;;;;56.25;23.42;;;;;;;;;;5049294;28;20139;-73
2022/12/12 01:22:00;;;;;;;55.67;22.85;;;;;;;;;;5055726;28;20465;-73
2022/12/12 01:24:27;;;;;;;53.08;22.00;;;;;;;;;;5068188;28;20048;-73
2022/12/12 01:26:55;;;;;;;57.60;23.48;;;;;;;;;;5040796;28;20052;-74
2022/12/12 01:29:22;;;;;;;53.58;22.75;;;;;;;;;;5073165;28;20051;-74
2022/12/12 01:31:51;;;;;;;61.13;23.48;;;;;;;;;;5064845;28;20120;-74
2022/12/12 01:34:18;;;;;;;54.65;22.48;;;;;;;;;;5050561;28;20056;-74
2022/12/12 01:36:45;;;;;;;60.97;23.90;;;;;;;;;;5063870;28;20049;-74
2022/12/12 01:39:12;;;;;;;59.33;22.75;;;;;;;;;;5064621;28;20436;-73
2022/12/12 01:41:39;;;;;;;53.47;22.63;;;;;;;;;;5049608;28;20060;-73
2022/12/12 01:44:27;;;;;;;51.72;23.75;;;;;;;;;;5071883;28;20494;-73
2022/12/12 01:46:56;;;;;;;60.22;24.35;;;;;;;;;;5046975;28;20056;-74
2022/12/12 01:49:24;;;;;;;56.53;24.48;;;;;;;;;;5046589;28;20048;-73
2022/12/12 01:51:53;;;;;;;61.20;25.13;;;;;;;;;;5067507;28;20048;-74
2022/12/12 01:54:22;;;;;;;65.38;26.13;;;;;;;;;;5066162;28;20048;-74
2022/12/12 01:56:50;;;;;;;69.60;26.38;;;;;;;;;;5050411;28;20056;-74
2022/12/12 01:59:18;;;;;;;67.00;26.40;;;;;;;;;;5066677;28;20048;-74
2022/12/12 02:01:46;;;;;;;56.42;23.05;;;;;;;;;;5048397;28;20056;-74
2022/12/12 02:04:15;;;;;;;58.33;25.08;;;;;;;;;;5066770;28;20499;-74
2022/12/12 02:06:42;;;;;;;59.20;24.08;;;;;;;;;;5061149;28;20057;-73
2022/12/12 02:09:11;;;;;;;58.38;24.92;;;;;;;;;;5049540;28;20060;-73
2022/12/12 02:11:42;;;;;;;65.28;25.50;;;;;;;;;;5044500;28;20048;-73
2022/12/12 02:14:09;;;;;;;61.70;25.27;;;;;;;;;;5050479;28;20233;-73
2022/12/12 02:16:43;;;;;;;57.75;23.58;;;;;;;;;;5050359;28;20517;-73
2022/12/12 02:19:25;;;;;;;53.33;22.48;;;;;;;;;;5066756;28;20067;-73
2022/12/12 02:21:55;;;;;;;57.35;24.55;;;;;;;;;;5062794;28;20045;-74
2022/12/12 02:24:32;;;;;;;57.55;24.20;;;;;;;;;;5052399;28;20096;-74
2022/12/12 02:27:17;;;;;;;51.75;22.25;;;;;;;;;;5051146;28;20133;-74
2022/12/12 02:30:02;;;;;;;66.35;24.95;;;;;;;;;;5043969;28;20056;-74
2022/12/12 02:32:36;;;;;;;59.28;24.50;;;;;;;;;;5068326;28;20056;-73
2022/12/12 02:35:07;;;;;;;65.53;25.90;;;;;;;;;;5041434;28;20052;-74
2022/12/12 02:37:38;;;;;;;54.92;24.25;;;;;;;;;;5060553;28;20055;-73
2022/12/12 02:40:10;;;;;;;54.67;24.92;;;;;;;;;;5045159;28;20044;-73
2022/12/12 02:42:40;;;;;;;60.10;25.50;;;;;;;;;;5058287;28;20415;-73
2022/12/12 02:45:10;;;;;;;62.47;25.45;;;;;;;;;;5046356;28;20067;-73
2022/12/12 02:47:42;;;;;;;62.63;25.23;;;;;;;;;;5046617;28;20076;-73
2022/12/12 02:50:11;;;;;;;53.95;24.25;;;;;;;;;;5054103;28;20384;-73
2022/12/12 02:52:38;;;;;;;56.92;25.63;;;;;;;;;;5047134;28;20065;-73
2022/12/12 02:55:07;;;;;;;55.47;24.80;;;;;;;;;;5068531;28;20049;-74
2022/12/12 02:57:34;;;;;;;50.05;23.63;;;;;;;;;;5038735;28;20563;-74
2022/12/12 03:00:02;;;;;;;62.35;25.77;;;;;;;;;;5057352;28;20052;-74
2022/12/12 03:02:46;;;;;;;62.40;25.85;;;;;;;;;;5059846;28;20134;-74
2022/12/12 03:08:12;;;;;;;54.20;22.50;;;;;;;;;;5023997;28;20203;-73
2022/12/12 03:10:46;;;;;;;55.80;24.02;;;;;;;;;;5061229;28;20056;-73
2022/12/12 03:13:21;;;;;;;46.75;22.05;;;;;;;;;;5069606;28;20048;-73
2022/12/12 03:15:58;;;;;;;51.38;24.05;;;;;;;;;;5044150;28;20045;-73
2022/12/12 03:18:28;;;;;;;52.80;23.70;;;;;;;;;;5046321;28;20048;-73
2022/12/12 03:20:57;;;;;;;59.75;24.95;;;;;;;;;;5050824;28;20049;-74
2022/12/12 03:23:26;;;;;;;58.75;24.55;;;;;;;;;;5041338;28;20056;-74
2022/12/12 03:25:58;;;;;;;53.42;23.40;;;;;;;;;;5039570;28;20060;-74
2022/12/12 03:28:30;;;;;;;55.20;24.30;;;;;;;;;;5043665;28;20053;-73
2022/12/12 03:30:58;;;;;;;59.05;23.85;;;;;;;;;;5066059;28;20288;-73
2022/12/12 03:33:29;;;;;;;55.60;23.92;;;;;;;;;;5046285;28;20079;-73
2022/12/12 03:36:00;;;;;;;52.55;23.13;;;;;;;;;;5056887;28;20551;-73
2022/12/12 03:38:30;;;;;;;54.65;23.00;;;;;;;;;;5065415;28;20045;-73
2022/12/12 03:40:59;;;;;;;54.42;22.67;;;;;;;;;;5045242;28;20049;-73
2022/12/12 03:43:28;;;;;;;52.00;23.23;;;;;;;;;;5055968;28;20049;-73
2022/12/12 03:45:58;;;;;;;48.70;23.10;;;;;;;;;;5043896;28;20148;-73
2022/12/12 03:48:29;;;;;;;69.03;25.95;;;;;;;;;;5064911;28;20055;-73
2022/12/12 03:50:59;;;;;;;64.05;25.92;;;;;;;;;;5064000;28;20060;-73
2022/12/12 03:53:31;;;;;;;65.85;24.88;;;;;;;;;;5036408;28;20056;-73
2022/12/12 03:56:02;;;;;;;57.63;22.98;;;;;;;;;;5048130;28;20105;-73
2022/12/12 03:58:31;;;;;;;71.68;27.55;;;;;;;;;;5051700;28;20643;-74
2022/12/12 04:01:00;;;;;;;64.20;25.05;;;;;;;;;;5044592;28;20653;-73
2022/12/12 04:03:32;;;;;;;67.30;25.63;;;;;;;;;;5071469;28;20088;-74
2022/12/12 04:14:22;;;;;;;57.50;24.00;;;;;;;;;;5071585;28;20783;-74
2022/12/12 04:16:59;;;;;;;59.50;23.52;;;;;;;;;;5038607;28;20131;-73
2022/12/12 04:25:17;;;;;;;50.00;20.77;;;;;;;;;;4991396;28;20051;-73
2022/12/12 04:27:47;;;;;;;55.10;23.42;;;;;;;;;;5049472;28;20053;-73
2022/12/12 04:30:15;;;;;;;54.75;22.77;;;;;;;;;;5051309;28;20057;-74
2022/12/12 04:32:43;;;;;;;54.38;21.85;;;;;;;;;;5062978;28;20052;-73
2022/12/12 04:35:13;;;;;;;66.65;25.15;;;;;;;;;;5063738;28;20048;-74
2022/12/12 04:37:41;;;;;;;56.78;22.52;;;;;;;;;;5048246;28;20056;-73
2022/12/12 04:40:10;;;;;;;52.35;21.48;;;;;;;;;;5050055;28;20391;-73
2022/12/12 04:42:39;;;;;;;55.97;23.80;;;;;;;;;;5049858;28;20060;-74
2022/12/12 04:45:08;;;;;;;53.72;23.48;;;;;;;;;;5067093;28;20055;-73
2022/12/12 04:47:37;;;;;;;57.38;23.48;;;;;;;;;;5047058;28;20064;-73
2022/12/12 04:50:06;;;;;;;57.53;23.45;;;;;;;;;;5047684;28;20075;-74
2022/12/12 04:52:35;;;;;;;60.22;23.92;;;;;;;;;;5047206;28;20052;-73
2022/12/12 04:55:04;;;;;;;58.20;22.98;;;;;;;;;;5049831;28;20514;-73
2022/12/12 04:57:34;;;;;;;61.03;23.55;;;;;;;;;;5062881;28;20056;-73
2022/12/12 05:00:01;;;;;;;59.53;24.17;;;;;;;;;;5072482;28;20055;-73
2022/12/12 05:02:32;;;;;;;63.47;25.20;;;;;;;;;;5049194;28;20091;-73
2022/12/12 05:05:00;;;;;;;56.10;22.63;;;;;;;;;;5065897;28;20399;-73
2022/12/12 05:07:31;;;;;;;49.63;22.65;;;;;;;;;;5067344;28;20056;-74
2022/12/12 05:10:00;;;;;;;50.88;21.80;;;;;;;;;;5049006;28;20116;-74
2022/12/12 05:12:27;;;;;;;60.38;22.77;;;;;;;;;;5068637;28;20048;-73
2022/12/12 05:14:55;;;;;;;56.45;23.17;;;;;;;;;;5050759;28;20058;-73
2022/12/12 05:17:25;;;;;;;49.90;22.20;;;;;;;;;;5050669;28;20138;-73
2022/12/12 05:19:53;;;;;;;55.05;21.20;;;;;;;;;;5067026;28;20045;-73
2022/12/12 05:22:20;;;;;;;53.35;21.15;;;;;;;;;;5049924;28;20566;-74
2022/12/12 05:24:47;;;;;;;55.85;21.35;;;;;;;;;;5051485;28;20061;-73
2022/12/12 05:27:16;;;;;;;55.13;22.13;;;;;;;;;;5053280;28;20054;-73
2022/12/12 05:29:43;;;;;;;51.28;21.83;;;;;;;;;;5050608;28;20075;-74
2022/12/12 05:32:10;;;;;;;60.60;23.23;;;;;;;;;;5043785;28;20048;-73
2022/12/12 05:34:38;;;;;;;47.72;21.00;;;;;;;;;;5049880;28;20052;-73
2022/12/12 05:37:05;;;;;;;67.55;24.33;;;;;;;;;;5067322;28;20487;-73
2022/12/12 05:39:32;;;;;;;59.00;23.33;;;;;;;;;;5051161;28;20055;-73
2022/12/12 05:41:59;;;;;;;57.25;21.92;;;;;;;;;;5047559;28;20057;-73
2022/12/12 05:44:28;;;;;;;57.65;23.88;;;;;;;;;;5067089;28;20057;-73
2022/12/12 05:46:55;;;;;;;57.60;23.48;;;;;;;;;;5066266;28;20065;-74
2022/12/12 05:49:22;;;;;;;65.70;24.30;;;;;;;;;;5067182;28;20352;-74
2022/12/12 05:51:50;;;;;;;63.08;24.25;;;;;;;;;;5054362;28;20052;-73
2022/12/12 05:54:17;;;;;;;57.97;23.13;;;;;;;;;;5044337;28;20628;-74
2022/12/12 05:56:44;;;;;;;48.63;21.13;;;;;;;;;;5054091;28;20590;-73
2022/12/12 05:59:12;;;;;;;43.72;19.98;;;;;;;;;;5047166;28;21457;-73
2022/12/12 06:01:40;;;;;;;44.83;20.08;;;;;;;;;;5066836;28;20048;-73
2022/12/12 06:04:08;;;;;;;56.22;24.42;;;;;;;;;;5047867;28;20088;-74
2022/12/12 06:06:35;;;;;;;45.70;21.30;;;;;;;;;;5056105;28;20056;-73
2022/12/12 06:09:02;;;;;;;43.92;21.63;;;;;;;;;;5063877;28;20057;-73
2022/12/12 06:11:29;;;;;;;48.22;21.25;;;;;;;;;;5068604;28;20383;-73
2022/12/12 06:13:57;;;;;;;48.00;20.80;;;;;;;;;;5067257;28;20739;-73
2022/12/12 06:16:24;;;;;;;53.42;22.08;;;;;;;;;;5054007;28;20511;-74
2022/12/12 06:18:53;;;;;;;43.10;19.00;;;;;;;;;;5068420;28;20049;-73
2022/12/12 06:21:20;;;;;;;42.22;19.50;;;;;;;;;;5047484;28;20053;-73
2022/12/12 06:23:48;;;;;;;40.05;18.45;;;;;;;;;;5039925;28;20392;-73
2022/12/12 06:26:17;;;;;;;46.35;20.02;;;;;;;;;;5067534;28;20050;-74
2022/12/12 06:28:44;;;;;;;42.92;18.73;;;;;;;;;;5059921;28;20052;-74
2022/12/12 06:31:11;;;;;;;37.55;17.55;;;;;;;;;;5047030;28;20565;-74
2022/12/12 06:33:39;;;;;;;40.55;18.65;;;;;;;;;;5050314;28;20049;-75
2022/12/12 06:36:10;;;;;;;39.35;18.35;;;;;;;;;;5049809;28;20135;-74
2022/12/12 06:38:37;;;;;;;42.38;18.85;;;;;;;;;;5051222;28;20485;-74
2022/12/12 06:41:06;;;;;;;42.13;18.55;;;;;;;;;;5040473;28;20048;-73
2022/12/12 06:43:34;;;;;;;43.38;18.92;;;;;;;;;;5059213;28;20128;-73
2022/12/12 06:46:02;;;;;;;40.08;17.20;;;;;;;;;;5047839;28;20064;-73
2022/12/12 06:48:30;;;;;;;41.17;17.98;;;;;;;;;;5071019;28;20411;-73
2022/12/12 06:50:58;;;;;;;38.03;18.27;;;;;;;;;;5051424;28;20048;-73
2022/12/12 06:53:27;;;;;;;37.03;17.65;;;;;;;;;;5044025;28;20049;-73
2022/12/12 06:55:54;;;;;;;37.22;17.67;;;;;;;;;;5062140;28;20052;-73
2022/12/12 06:58:21;;;;;;;39.22;18.00;;;;;;;;;;5046658;28;20055;-74
2022/12/12 07:00:51;;;;;;;37.25;18.30;;;;;;;;;;5070960;28;20103;-73
2022/12/12 07:03:18;;;;;;;36.15;18.13;;;;;;;;;;5045992;28;20475;-73
2022/12/12 07:05:46;;;;;;;39.03;17.83;;;;;;;;;;5048178;28;20144;-72
2022/12/12 07:08:13;;;;;;;37.10;18.25;;;;;;;;;;5047562;28;20048;-73
2022/12/12 07:10:43;;;;;;;38.25;18.65;;;;;;;;;;5043879;28;20064;-73
2022/12/12 07:13:10;;;;;;;36.45;16.98;;;;;;;;;;5042376;28;20488;-73
2022/12/12 07:15:42;;;;;;;33.83;16.48;;;;;;;;;;5068702;28;20068;-73
2022/12/12 07:18:09;;;;;;;35.50;16.20;;;;;;;;;;5045865;28;20041;-73
2022/12/12 07:20:39;;;;;;;36.72;17.65;;;;;;;;;;5046891;28;20044;-73
2022/12/12 07:23:06;;;;;;;38.15;17.48;;;;;;;;;;5048477;28;20059;-73
2022/12/12 07:25:33;;;;;;;34.28;16.02;;;;;;;;;;5046515;28;20075;-73
2022/12/12 07:28:02;;;;;;;33.00;16.85;;;;;;;;;;5040771;28;20052;-73
2022/12/12 07:30:29;;;;;;;34.33;16.98;;;;;;;;;;5056673;28;20049;-72
2022/12/12 07:32:56;;;;;;;36.60;16.60;;;;;;;;;;5039917;28;20060;-73
2022/12/12 07:35:24;;;;;;;32.45;16.13;;;;;;;;;;5066441;28;20136;-73
2022/12/12 07:37:51;;;;;;;39.97;17.77;;;;;;;;;;5062519;28;20419;-73
2022/12/12 07:40:18;;;;;;;36.33;16.75;;;;;;;;;;5043365;28;20049;-73
2022/12/12 07:42:46;;;;;;;36.55;16.90;;;;;;;;;;5042000;28;20058;-73
2022/12/12 07:45:14;;;;;;;37.83;16.65;;;;;;;;;;5065309;28;20415;-73
2022/12/12 07:47:41;;;;;;;41.00;17.40;;;;;;;;;;5044084;28;20534;-73
2022/12/12 07:50:09;;;;;;;36.15;16.52;;;;;;;;;;5067892;28;20792;-73
2022/12/12 07:52:36;;;;;;;43.13;18.15;;;;;;;;;;5061866;28;20059;-73
2022/12/12 07:55:04;;;;;;;39.58;17.83;;;;;;;;;;5062427;28;20048;-73
2022/12/12 07:57:32;;;;;;;37.10;17.98;;;;;;;;;;5039047;28;20052;-73
2022/12/12 07:59:59;;;;;;;39.13;17.15;;;;;;;;;;5049353;28;20055;-73
2022/12/12 08:02:28;;;;;;;39.83;17.40;;;;;;;;;;5043634;28;20499;-73
2022/12/12 08:04:55;;;;;;;38.95;17.65;;;;;;;;;;5043958;28;20041;-73
2022/12/12 08:07:23;;;;;;;37.75;16.52;;;;;;;;;;5058808;28;20099;-72
2022/12/12 08:09:50;;;;;;;38.20;17.83;;;;;;;;;;5049349;28;20044;-73
2022/12/12 08:12:17;;;;;;;37.38;16.60;;;;;;;;;;5065169;28;20044;-73
2022/12/12 08:14:45;;;;;;;38.58;18.02;;;;;;;;;;5045866;28;20059;-73
2022/12/12 08:17:12;;;;;;;43.63;18.55;;;;;;;;;;5065884;28;20056;-73
2022/12/12 08:19:40;;;;;;;44.53;18.50;;;;;;;;;;5048398;28;20049;-72
2022/12/12 08:22:08;;;;;;;40.38;17.50;;;;;;;;;;5043883;28;20387;-73
2022/12/12 08:24:35;;;;;;;37.40;18.20;;;;;;;;;;5063228;28;20137;-72
2022/12/12 08:27:06;;;;;;;41.65;18.30;;;;;;;;;;5042471;28;20139;-72
2022/12/12 08:29:33;;;;;;;38.13;17.48;;;;;;;;;;5043011;28;20052;-72
2022/12/12 08:32:00;;;;;;;36.03;17.25;;;;;;;;;;5064188;28;20407;-72
2022/12/12 08:34:27;;;;;;;40.13;16.75;;;;;;;;;;5048646;28;20590;-73
2022/12/12 08:36:56;;;;;;;43.75;19.55;;;;;;;;;;5064596;28;20048;-74
2022/12/12 08:39:23;;;;;;;38.80;17.58;;;;;;;;;;5051826;28;20040;-72
2022/12/12 08:41:50;;;;;;;37.97;18.27;;;;;;;;;;5064175;28;20041;-72
2022/12/12 08:44:19;;;;;;;41.17;18.27;;;;;;;;;;5048697;28;20136;-73
2022/12/12 08:46:47;;;;;;;35.53;17.23;;;;;;;;;;5069949;28;20060;-73
2022/12/12 08:49:15;;;;;;;41.17;17.70;;;;;;;;;;5050098;28;20123;-72
2022/12/12 08:51:42;;;;;;;37.90;18.42;;;;;;;;;;5041141;28;20392;-73
2022/12/12 08:54:11;;;;;;;38.00;17.90;;;;;;;;;;5057224;28;20040;-73
2022/12/12 08:56:39;;;;;;;41.47;19.42;;;;;;;;;;5066562;28;20159;-73
2022/12/12 08:59:06;;;;;;;47.97;20.75;;;;;;;;;;5044745;28;20053;-72
2022/12/12 09:01:33;;;;;;;39.13;18.58;;;;;;;;;;5053296;28;20795;-73
2022/12/12 09:04:00;;;;;;;37.85;17.75;;;;;;;;;;5051299;28;20467;-73
2022/12/12 09:06:28;;;;;;;35.83;17.35;;;;;;;;;;5066599;28;20457;-73
2022/12/12 09:08:56;;;;;;;40.03;17.83;;;;;;;;;;5066312;28;20048;-73
2022/12/12 09:11:24;;;;;;;39.58;18.65;;;;;;;;;;5070783;28;20077;-73
2022/12/12 09:13:52;;;;;;;35.42;18.05;;;;;;;;;;5071501;28;20355;-73
2022/12/12 09:16:20;;;;;;;37.67;18.00;;;;;;;;;;5050350;28;20140;-73
2022/12/12 09:18:48;;;;;;;39.53;18.90;;;;;;;;;;5053377;28;20051;-73
2022/12/12 09:21:15;;;;;;;42.15;18.92;;;;;;;;;;5068468;28;20131;-73
2022/12/12 09:23:42;;;;;;;41.67;19.38;;;;;;;;;;5048498;28;20071;-73
2022/12/12 09:26:10;;;;;;;39.92;18.70;;;;;;;;;;5056258;28;20056;-73
2022/12/12 09:28:39;;;;;;;37.92;18.38;;;;;;;;;;5054203;28;20154;-73
2022/12/12 09:31:06;;;;;;;37.83;19.13;;;;;;;;;;5046983;28;20067;-73
2022/12/12 09:33:34;;;;;;;38.60;18.77;;;;;;;;;;5067674;28;20058;-73
2022/12/12 09:36:02;;;;;;;36.72;17.80;;;;;;;;;;5068965;28;20066;-73
2022/12/12 09:38:29;;;;;;;36.80;18.52;;;;;;;;;;5041019;28;20052;-73
2022/12/12 09:40:57;;;;;;;39.08;18.98;;;;;;;;;;5063950;28;20044;-73
2022/12/12 09:43:25;;;;;;;39.22;19.25;;;;;;;;;;5046122;28;20593;-73
2022/12/12 09:45:54;;;;;;;36.42;17.98;;;;;;;;;;5064296;28;20518;-73
2022/12/12 09:48:26;;;;;;;34.75;18.33;;;;;;;;;;5054780;28;20059;-73
2022/12/12 09:50:53;;;;;;;38.97;18.85;;;;;;;;;;5047883;28;20651;-72
2022/12/12 09:53:22;;;;;;;34.95;19.27;;;;;;;;;;5048008;28;20065;-72
2022/12/12 09:55:53;;;;;;;39.67;19.67;;;;;;;;;;5052193;28;20056;-73
2022/12/12 09:58:23;;;;;;;32.00;17.50;;;;;;;;;;5054157;28;20075;-74
2022/12/12 10:00:56;;;;;;;35.50;18.55;;;;;;;;;;5045638;28;20399;-74
2022/12/12 10:03:23;;;;;;;;;;;;;;;;;;5054660;28;20051;-73
2022/12/12 10:05:56;;;;;;;35.63;18.20;;;;;;;;;;5047394;28;20456;-74
2022/12/12 10:08:25;;;;;;;34.30;18.13;;;;;;;;;;5048673;28;20684;-74
2022/12/12 10:10:53;;;;;;;33.42;17.02;;;;;;;;;;5049787;28;20044;-74
2022/12/12 10:13:22;;;;;;;34.42;17.75;;;;;;;;;;5051939;28;20054;-74
2022/12/12 10:15:51;;;;;;;37.28;16.88;;;;;;;;;;5043039;28;20049;-74
2022/12/12 10:18:21;;;;;;;31.27;17.25;;;;;;;;;;5054514;28;20090;-74
2022/12/12 10:20:50;;;;;;;31.42;16.83;;;;;;;;;;5047064;28;20044;-74
2022/12/12 10:23:22;;;;;;;30.27;17.38;;;;;;;;;;5050889;28;20052;-74
2022/12/12 10:25:50;;;;;;;27.77;15.90;;;;;;;;;;5065950;28;20114;-74
2022/12/12 10:28:19;;;;;;;29.10;16.17;;;;;;;;;;5067539;28;20052;-74
2022/12/12 10:30:54;;;;;;;31.00;17.00;;;;;;;;;;5047528;28;20052;-74
2022/12/12 10:33:27;;;;;;;28.90;16.70;;;;;;;;;;5044756;28;20075;-74
2022/12/12 10:35:59;;;;;;;30.85;16.05;;;;;;;;;;5070240;28;20052;-74
2022/12/12 10:38:35;;;;;;;33.70;16.88;;;;;;;;;;5045221;28;20056;-74
2022/12/12 10:41:09;;;;;;;25.45;15.30;;;;;;;;;;5052105;28;20055;-74
2022/12/12 10:43:40;;;;;;;26.45;15.13;;;;;;;;;;5048696;28;20045;-74
2022/12/12 10:46:17;;;;;;;30.83;16.27;;;;;;;;;;5046006;28;20064;-74
2022/12/12 10:48:45;;;;;;;30.00;16.30;;;;;;;;;;5053562;28;20084;-74
2022/12/12 10:51:14;;;;;;;27.13;15.63;;;;;;;;;;5048232;28;20082;-74
2022/12/12 10:53:43;;;;;;;29.08;16.27;;;;;;;;;;5050505;28;20716;-74
2022/12/12 10:56:11;;;;;;;26.60;15.98;;;;;;;;;;5048671;28;20166;-74
2022/12/12 10:58:39;;;;;;;35.17;17.58;;;;;;;;;;5049710;28;20130;-74
2022/12/12 11:01:11;;;;;;;26.08;15.43;;;;;;;;;;5047113;28;20052;-74
2022/12/12 11:03:40;;;;;;;32.75;17.40;;;;;;;;;;5042646;28;20681;-74
2022/12/12 11:06:15;;;;;;;29.75;16.52;;;;;;;;;;5044979;28;20048;-74
2022/12/12 11:08:54;;;;;;;29.92;16.50;;;;;;;;;;5050007;28;20060;-74
2022/12/12 11:11:22;;;;;;;33.80;16.45;;;;;;;;;;5062591;28;20048;-74
2022/12/12 11:13:51;;;;;;;30.65;16.80;;;;;;;;;;5048191;28;20056;-74
2022/12/12 11:16:19;;;;;;;30.98;16.95;;;;;;;;;;5049438;28;20044;-74
2022/12/12 11:19:01;;;;;;;32.60;18.25;;;;;;;;;;5041346;28;20055;-74
2022/12/12 11:21:29;;;;;;;32.13;18.17;;;;;;;;;;5046135;28;20053;-74
2022/12/12 11:23:58;;;;;;;33.28;18.10;;;;;;;;;;5040518;28;20474;-73
2022/12/12 11:26:27;;;;;;;32.60;16.70;;;;;;;;;;5050172;28;20045;-74
2022/12/12 11:28:57;;;;;;;33.40;18.33;;;;;;;;;;5051801;28;20529;-73
2022/12/12 11:31:26;;;;;;;34.70;18.33;;;;;;;;;;5041340;28;20045;-74
2022/12/12 11:33:54;;;;;;;32.25;18.15;;;;;;;;;;5046073;28;20052;-74
2022/12/12 11:36:22;;;;;;;38.15;18.65;;;;;;;;;;5045282;28;20041;-74
2022/12/12 11:38:51;;;;;;;34.83;18.45;;;;;;;;;;5046765;28;20078;-74
2022/12/12 11:41:20;;;;;;;38.03;18.85;;;;;;;;;;5048851;28;20052;-74
2022/12/12 11:43:54;;;;;;;35.65;18.50;;;;;;;;;;5047478;28;20052;-73
2022/12/12 11:46:24;;;;;;;33.92;18.25;;;;;;;;;;5070478;28;20056;-74
2022/12/12 11:48:58;;;;;;;35.95;18.35;;;;;;;;;;5053579;28;20479;-73
2022/12/12 11:51:32;;;;;;;34.42;18.75;;;;;;;;;;5044895;28;20059;-74
2022/12/12 11:54:00;;;;;;;36.20;18.15;;;;;;;;;;5044935;28;20055;-74
2022/12/12 11:56:40;;;;;;;33.90;18.08;;;;;;;;;;5044256;28;20085;-74
2022/12/12 11:59:14;;;;;;;34.72;19.27;;;;;;;;;;5045373;28;20140;-73
2022/12/12 12:01:44;;;;;;;39.45;18.83;;;;;;;;;;5050507;28;20200;-74
2022/12/12 12:04:17;;;;;;;37.95;18.90;;;;;;;;;;5041758;28;20068;-74
2022/12/12 12:06:53;;;;;;;34.90;19.42;;;;;;;;;;5048777;28;20041;-74
2022/12/12 12:09:25;;;;;;;33.03;18.67;;;;;;;;;;5047570;28;20044;-74
2022/12/12 12:12:01;;;;;;;34.85;18.90;;;;;;;;;;5048398;28;20087;-74
2022/12/12 12:14:34;;;;;;;34.42;18.52;;;;;;;;;;5040625;28;20064;-73
2022/12/12 12:17:03;;;;;;;38.63;19.77;;;;;;;;;;5044586;28;20052;-74
2022/12/12 12:19:33;;;;;;;36.42;19.17;;;;;;;;;;5052277;28;20044;-73
2022/12/12 12:22:03;;;;;;;37.30;19.52;;;;;;;;;;5047507;28;20048;-74
2022/12/12 12:24:49;;;;;;;35.20;18.38;;;;;;;;;;5054536;28;20048;-74
2022/12/12 12:27:21;;;;;;;36.63;19.10;;;;;;;;;;5054024;28;20182;-74
2022/12/12 12:30:09;;;;;;;33.33;18.05;;;;;;;;;;5053203;28;20052;-74
2022/12/12 12:32:42;;;;;;;35.80;18.33;;;;;;;;;;5056675;28;20056;-74
2022/12/12 12:35:16;;;;;;;33.35;18.40;;;;;;;;;;5050568;28;20516;-74
2022/12/12 12:37:49;;;;;;;33.88;17.83;;;;;;;;;;5048220;28;20381;-74
2022/12/12 12:40:22;;;;;;;38.40;19.75;;;;;;;;;;5071984;28;20708;-74
2022/12/12 12:42:56;;;;;;;35.92;18.80;;;;;;;;;;5048956;28;20053;-74
2022/12/12 12:45:28;;;;;;;33.67;17.90;;;;;;;;;;5047224;28;20468;-74
2022/12/12 12:47:58;;;;;;;32.47;17.33;;;;;;;;;;5064669;28;20326;-74
2022/12/12 12:50:28;;;;;;;35.70;17.70;;;;;;;;;;5055974;28;20044;-73
2022/12/12 12:52:57;;;;;;;36.30;18.92;;;;;;;;;;5051069;28;20070;-73
2022/12/12 12:55:29;;;;;;;32.80;17.13;;;;;;;;;;5055275;28;20060;-74
2022/12/12 12:57:58;;;;;;;33.35;17.13;;;;;;;;;;5054260;28;20048;-74
2022/12/12 13:00:27;;;;;;;34.45;17.02;;;;;;;;;;5050383;28;20047;-74
2022/12/12 13:02:58;;;;;;;32.15;16.52;;;;;;;;;;5051027;28;20060;-73
2022/12/12 13:05:29;;;;;;;29.45;16.52;;;;;;;;;;5041604;28;20064;-73
2022/12/12 13:08:01;;;;;;;32.67;16.77;;;;;;;;;;5066651;28;20048;-74
2022/12/12 13:10:29;;;;;;;31.55;16.50;;;;;;;;;;5048219;28;20055;-73
2022/12/12 13:13:00;;;;;;;30.05;15.77;;;;;;;;;;5046961;28;20109;-73
2022/12/12 13:15:29;;;;;;;32.80;17.33;;;;;;;;;;5043833;28;20045;-74
2022/12/12 13:18:01;;;;;;;30.75;15.38;;;;;;;;;;5041411;28;20072;-74
2022/12/12 13:20:29;;;;;;;32.63;15.40;;;;;;;;;;5046221;28;20053;-74
2022/12/12 13:23:04;;;;;;;28.88;16.58;;;;;;;;;;5041150;28;20056;-74
2022/12/12 13:25:36;;;;;;;29.58;14.13;;;;;;;;;;5046063;28;20049;-74
2022/12/12 13:28:06;;;;;;;28.17;14.55;;;;;;;;;;5046241;28;20123;-74
2022/12/12 13:30:42;;;;;;;27.48;14.18;;;;;;;;;;5046843;28;20048;-74
2022/12/12 13:33:19;;;;;;;25.55;14.45;;;;;;;;;;5047500;28;20074;-74
2022/12/12 13:35:47;;;;;;;27.55;14.27;;;;;;;;;;5048589;28;20063;-74
2022/12/12 13:38:18;;;;;;;29.92;13.88;;;;;;;;;;5044660;28;20067;-74
2022/12/12 13:40:45;;;;;;;27.65;13.38;;;;;;;;;;5067629;28;20131;-71
2022/12/12 13:43:28;;;;;;;30.50;14.93;;;;;;;;;;5045635;28;20628;-75
2022/12/12 13:45:55;;;;;;;35.30;16.77;;;;;;;;;;5035313;28;20052;-76
2022/12/12 13:48:38;;;;;;;31.27;15.32;;;;;;;;;;5041172;28;20132;-75
2022/12/12 13:51:24;;;;;;;31.48;15.32;;;;;;;;;;5040945;28;20055;-74
2022/12/12 13:54:12;;;;;;;29.23;14.43;;;;;;;;;;5053122;28;20050;-75
2022/12/12 13:56:41;;;;;;;23.95;12.98;;;;;;;;;;5041010;28;20394;-74
2022/12/12 13:59:29;;;;;;;24.65;12.77;;;;;;;;;;5044556;28;20064;-75
2022/12/12 14:01:57;;;;;;;26.45;14.55;;;;;;;;;;5043377;28;20064;-75
2022/12/12 14:04:26;;;;;;;26.63;13.75;;;;;;;;;;5037169;28;20060;-76
2022/12/12 14:06:59;;;;;;;26.50;14.32;;;;;;;;;;5040886;28;20059;-76
2022/12/12 14:09:26;;;;;;;;;;;;;;;;;;5038671;28;20076;-75
2022/12/12 14:11:54;;;;;;;24.27;12.45;;;;;;;;;;5034838;28;19924;-76
2022/12/12 14:14:23;;;;;;;28.33;13.38;;;;;;;;;;5040153;28;20049;-73
2022/12/12 14:16:55;;;;;;;26.48;13.90;;;;;;;;;;5039428;28;20056;-73
2022/12/12 14:19:26;;;;;;;20.98;11.90;;;;;;;;;;5040737;28;20052;-73
2022/12/12 14:21:53;;;;;;;27.13;12.85;;;;;;;;;;5035862;28;20049;-76
2022/12/12 14:24:41;;;;;;;26.27;12.88;;;;;;;;;;5039697;28;20049;-75
2022/12/12 14:27:09;;;;;;;25.10;13.13;;;;;;;;;;5035792;28;20915;-75
2022/12/12 14:29:39;;;;;;;27.80;14.07;;;;;;;;;;5039873;28;20388;-75
2022/12/12 14:32:14;;;;;;;27.70;13.93;;;;;;;;;;5030980;28;20037;-74
2022/12/12 14:34:47;;;;;;;30.80;13.90;;;;;;;;;;5035423;28;20049;-73
2022/12/12 14:37:19;;;;;;;26.02;12.63;;;;;;;;;;5038031;28;20534;-74
2022/12/12 14:39:51;;;;;;;26.65;14.32;;;;;;;;;;5034087;28;20052;-74
2022/12/12 14:42:22;;;;;;;26.75;14.57;;;;;;;;;;5038455;28;20055;-73
2022/12/12 14:44:51;;;;;;;27.02;13.65;;;;;;;;;;5036376;28;20419;-74
2022/12/12 14:47:18;;;;;;;30.38;14.00;;;;;;;;;;5043284;28;20396;-75
2022/12/12 14:49:46;;;;;;;29.52;14.55;;;;;;;;;;5036451;28;20127;-74